sensor_id;sensor_type;location;lat;lon;timestamp;pressure;altitude;pressure_sealevel;temperature;humidity
15884;BME280;8040;50.254;10.960;2023-07-13T00:00:42;97982.59;;;23.63;42.47
15884;BME280;8040;50.254;10.960;2023-07-13T00:03:07;97984.97;;;23.61;42.51
15884;BME280;8040;50.254;10.960;2023-07-13T00:05:32;97980.19;;;23.58;42.27
15884;BME280;8040;50.254;10.960;2023-07-13T00:11:01;97994.41;;;23.53;42.27
15884;BME280;8040;50.254;10.960;2023-07-13T00:13:27;97989.69;;;23.50;41.85
15884;BME280;8040;50.254;10.960;2023-07-13T00:15:52;97990.88;;;23.49;41.73
15884;BME280;8040;50.254;10.960;2023-07-13T00:18:19;97988.47;;;23.48;41.64
15884;BME280;8040;50.254;10.960;2023-07-13T00:20:45;97997.97;;;23.47;41.51
15884;BME280;8040;50.254;10.960;2023-07-13T00:23:11;97992.81;;;23.45;41.55
15884;BME280;8040;50.254;10.960;2023-07-13T00:25:36;97990.03;;;23.42;41.65
15884;BME280;8040;50.254;10.960;2023-07-13T00:28:02;97993.97;;;23.37;41.61
15884;BME280;8040;50.254;10.960;2023-07-13T00:30:34;97985.66;;;23.34;41.83
15884;BME280;8040;50.254;10.960;2023-07-13T00:32:59;97977.72;;;23.29;41.77
15884;BME280;8040;50.254;10.960;2023-07-13T00:35:26;97981.25;;;23.22;41.65
15884;BME280;8040;50.254;10.960;2023-07-13T00:37:52;97979.25;;;23.19;41.99
15884;BME280;8040;50.254;10.960;2023-07-13T00:40:17;97969.72;;;23.13;41.85
15884;BME280;8040;50.254;10.960;2023-07-13T00:42:43;97972.84;;;23.12;42.21
15884;BME280;8040;50.254;10.960;2023-07-13T00:47:37;97962.09;;;22.96;42.07
15884;BME280;8040;50.254;10.960;2023-07-13T00:50:02;97958.09;;;22.87;42.23
15884;BME280;8040;50.254;10.960;2023-07-13T00:52:32;97969.91;;;22.80;42.43
15884;BME280;8040;50.254;10.960;2023-07-13T00:54:57;97971.44;;;22.74;42.73
15884;BME280;8040;50.254;10.960;2023-07-13T00:57:23;97972.97;;;22.68;42.85
15884;BME280;8040;50.254;10.960;2023-07-13T00:59:50;97976.53;;;22.65;43.26
15884;BME280;8040;50.254;10.960;2023-07-13T01:02:16;97974.53;;;22.62;43.41
15884;BME280;8040;50.254;10.960;2023-07-13T01:04:42;97963.41;;;22.55;43.55
15884;BME280;8040;50.254;10.960;2023-07-13T01:07:09;97958.66;;;22.49;43.87
15884;BME280;8040;50.254;10.960;2023-07-13T01:09:35;97972.00;;;22.43;44.09
15884;BME280;8040;50.254;10.960;2023-07-13T01:12:00;97964.03;;;22.38;44.64
15884;BME280;8040;50.254;10.960;2023-07-13T01:14:29;97965.66;;;22.39;44.97
15884;BME280;8040;50.254;10.960;2023-07-13T01:16:55;97969.19;;;22.40;45.00
15884;BME280;8040;50.254;10.960;2023-07-13T01:19:34;97975.53;;;22.40;45.22
15884;BME280;8040;50.254;10.960;2023-07-13T01:22:17;97980.63;;;22.38;45.21
15884;BME280;8040;50.254;10.960;2023-07-13T01:24:44;97975.50;;;22.37;45.08
15884;BME280;8040;50.254;10.960;2023-07-13T01:27:11;97977.47;;;22.36;45.13
15884;BME280;8040;50.254;10.960;2023-07-13T01:29:37;97977.44;;;22.33;45.22
15884;BME280;8040;50.254;10.960;2023-07-13T01:32:11;97979.00;;;22.30;45.00
15884;BME280;8040;50.254;10.960;2023-07-13T01:34:36;97983.75;;;22.30;45.30
15884;BME280;8040;50.254;10.960;2023-07-13T01:37:02;97978.59;;;22.28;45.10
15884;BME280;8040;50.254;10.960;2023-07-13T01:39:28;97982.53;;;22.27;44.99
15884;BME280;8040;50.254;10.960;2023-07-13T01:41:53;97986.88;;;22.28;45.26
15884;BME280;8040;50.254;10.960;2023-07-13T01:44:18;97982.94;;;22.29;45.36
15884;BME280;8040;50.254;10.960;2023-07-13T01:46:44;97990.81;;;22.27;44.89
15884;BME280;8040;50.254;10.960;2023-07-13T01:49:09;97980.13;;;22.22;44.56
15884;BME280;8040;50.254;10.960;2023-07-13T01:51:34;97990.72;;;22.20;44.57
15884;BME280;8040;50.254;10.960;2023-07-13T01:54:00;97990.69;;;22.17;44.47
15884;BME280;8040;50.254;10.960;2023-07-13T01:56:26;97988.34;;;22.15;44.43
15884;BME280;8040;50.254;10.960;2023-07-13T01:58:52;97999.00;;;22.17;44.46
15884;BME280;8040;50.254;10.960;2023-07-13T02:01:17;97995.00;;;22.14;44.80
15884;BME280;8040;50.254;10.960;2023-07-13T02:03:43;97997.38;;;22.12;44.65
15884;BME280;8040;50.254;10.960;2023-07-13T02:06:08;97989.50;;;22.14;44.59
15884;BME280;8040;50.254;10.960;2023-07-13T02:08:33;97993.06;;;22.15;44.62
15884;BME280;8040;50.254;10.960;2023-07-13T02:10:59;97991.47;;;22.14;44.27
15884;BME280;8040;50.254;10.960;2023-07-13T02:13:25;97995.78;;;22.11;44.23
15884;BME280;8040;50.254;10.960;2023-07-13T02:15:51;97988.22;;;22.05;44.07
15884;BME280;8040;50.254;10.960;2023-07-13T02:18:16;97994.94;;;22.04;44.28
15884;BME280;8040;50.254;10.960;2023-07-13T02:20:42;97985.81;;;22.00;44.28
15884;BME280;8040;50.254;10.960;2023-07-13T02:23:07;97997.97;;;21.92;44.24
15884;BME280;8040;50.254;10.960;2023-07-13T02:25:33;97997.88;;;21.85;44.52
15884;BME280;8040;50.254;10.960;2023-07-13T02:27:59;97994.28;;;21.81;44.61
15884;BME280;8040;50.254;10.960;2023-07-13T02:30:24;97994.69;;;21.79;44.67
15884;BME280;8040;50.254;10.960;2023-07-13T02:32:50;97997.00;;;21.77;44.83
15884;BME280;8040;50.254;10.960;2023-07-13T02:35:15;97997.75;;;21.71;45.04
15884;BME280;8040;50.254;10.960;2023-07-13T02:37:40;98001.63;;;21.66;45.00
15884;BME280;8040;50.254;10.960;2023-07-13T02:40:09;98001.50;;;21.59;45.07
15884;BME280;8040;50.254;10.960;2023-07-13T02:42:35;98002.28;;;21.56;45.10
15884;BME280;8040;50.254;10.960;2023-07-13T02:45:00;98018.44;;;21.54;45.15
15884;BME280;8040;50.254;10.960;2023-07-13T02:47:25;98014.06;;;21.53;45.22
15884;BME280;8040;50.254;10.960;2023-07-13T02:49:51;98016.03;;;21.53;45.40
15884;BME280;8040;50.254;10.960;2023-07-13T02:52:17;98016.81;;;21.53;45.46
15884;BME280;8040;50.254;10.960;2023-07-13T02:54:42;98014.41;;;21.48;45.30
15884;BME280;8040;50.254;10.960;2023-07-13T02:57:08;98017.50;;;21.43;45.22
15884;BME280;8040;50.254;10.960;2023-07-13T02:59:33;98012.31;;;21.38;45.28
15884;BME280;8040;50.254;10.960;2023-07-13T03:02:01;98011.91;;;21.36;45.38
15884;BME280;8040;50.254;10.960;2023-07-13T03:04:26;98007.56;;;21.35;45.37
15884;BME280;8040;50.254;10.960;2023-07-13T03:06:52;98003.56;;;21.33;45.42
15884;BME280;8040;50.254;10.960;2023-07-13T03:09:17;98013.00;;;21.32;45.54
15884;BME280;8040;50.254;10.960;2023-07-13T03:11:42;98013.75;;;21.29;45.53
15884;BME280;8040;50.254;10.960;2023-07-13T03:14:08;98019.22;;;21.25;45.76
15884;BME280;8040;50.254;10.960;2023-07-13T03:16:33;98022.72;;;21.22;45.71
15884;BME280;8040;50.254;10.960;2023-07-13T03:18:58;98014.03;;;21.20;45.55
15884;BME280;8040;50.254;10.960;2023-07-13T03:21:24;98014.41;;;21.19;45.80
15884;BME280;8040;50.254;10.960;2023-07-13T03:23:49;98017.13;;;21.15;45.85
15884;BME280;8040;50.254;10.960;2023-07-13T03:26:16;98016.66;;;21.10;45.80
15884;BME280;8040;50.254;10.960;2023-07-13T03:28:42;98022.50;;;21.05;45.95
15884;BME280;8040;50.254;10.960;2023-07-13T03:31:17;98031.13;;;21.03;46.19
15884;BME280;8040;50.254;10.960;2023-07-13T03:33:43;98039.03;;;21.05;46.09
15884;BME280;8040;50.254;10.960;2023-07-13T03:36:11;98036.66;;;21.03;46.23
15884;BME280;8040;50.254;10.960;2023-07-13T03:38:36;98040.94;;;21.01;46.17
15884;BME280;8040;50.254;10.960;2023-07-13T03:41:01;98041.72;;;20.98;46.06
15884;BME280;8040;50.254;10.960;2023-07-13T03:43:30;98042.88;;;20.97;46.33
15884;BME280;8040;50.254;10.960;2023-07-13T03:45:55;98039.31;;;20.96;46.26
15884;BME280;8040;50.254;10.960;2023-07-13T03:48:21;98044.41;;;20.94;46.16
15884;BME280;8040;50.254;10.960;2023-07-13T03:50:47;98040.06;;;20.93;46.17
15884;BME280;8040;50.254;10.960;2023-07-13T03:53:12;98051.88;;;20.94;46.09
15884;BME280;8040;50.254;10.960;2023-07-13T03:55:37;98046.81;;;20.96;46.35
15884;BME280;8040;50.254;10.960;2023-07-13T04:00:47;98058.63;;;20.96;46.77
15884;BME280;8040;50.254;10.960;2023-07-13T04:03:12;98060.59;;;20.96;46.76
15884;BME280;8040;50.254;10.960;2023-07-13T04:05:38;98058.19;;;20.94;46.81
15884;BME280;8040;50.254;10.960;2023-07-13T04:08:05;98067.25;;;20.95;46.55
15884;BME280;8040;50.254;10.960;2023-07-13T04:10:31;98077.56;;;20.98;46.59
15884;BME280;8040;50.254;10.960;2023-07-13T04:12:56;98074.81;;;20.98;46.53
15884;BME280;8040;50.254;10.960;2023-07-13T04:15:21;98073.25;;;21.00;46.55
15884;BME280;8040;50.254;10.960;2023-07-13T04:17:47;98078.03;;;21.03;46.51
15884;BME280;8040;50.254;10.960;2023-07-13T04:20:12;98077.66;;;21.05;46.22
15884;BME280;8040;50.254;10.960;2023-07-13T04:22:37;98086.34;;;21.07;46.21
15884;BME280;8040;50.254;10.960;2023-07-13T04:25:04;98083.22;;;21.08;46.24
15884;BME280;8040;50.254;10.960;2023-07-13T04:33:36;98084.72;;;21.02;45.42
15884;BME280;8040;50.254;10.960;2023-07-13T04:36:02;98095.31;;;21.00;45.52
15884;BME280;8040;50.254;10.960;2023-07-13T04:38:28;98094.16;;;21.01;45.90
15884;BME280;8040;50.254;10.960;2023-07-13T04:40:58;98091.75;;;21.00;45.68
15884;BME280;8040;50.254;10.960;2023-07-13T04:43:24;98098.09;;;21.00;45.45
15884;BME280;8040;50.254;10.960;2023-07-13T04:45:50;98094.88;;;20.98;45.11
15884;BME280;8040;50.254;10.960;2023-07-13T04:48:16;98099.66;;;21.01;45.04
15884;BME280;8040;50.254;10.960;2023-07-13T04:50:41;98102.13;;;21.06;45.40
15884;BME280;8040;50.254;10.960;2023-07-13T04:53:08;98101.81;;;21.11;45.61
15884;BME280;8040;50.254;10.960;2023-07-13T04:55:33;98110.50;;;21.13;45.33
15884;BME280;8040;50.254;10.960;2023-07-13T04:57:59;98110.91;;;21.15;45.05
15884;BME280;8040;50.254;10.960;2023-07-13T05:00:25;98116.53;;;21.22;44.75
15884;BME280;8040;50.254;10.960;2023-07-13T05:02:50;98124.53;;;21.31;44.06
15884;BME280;8040;50.254;10.960;2023-07-13T05:05:16;98120.78;;;21.42;44.01
15884;BME280;8040;50.254;10.960;2023-07-13T05:07:41;98129.56;;;21.51;44.05
15884;BME280;8040;50.254;10.960;2023-07-13T05:10:07;98132.00;;;21.56;43.84
15884;BME280;8040;50.254;10.960;2023-07-13T05:12:32;98130.53;;;21.62;43.67
15884;BME280;8040;50.254;10.960;2023-07-13T05:15:04;98122.78;;;21.71;43.46
15884;BME280;8040;50.254;10.960;2023-07-13T05:17:32;98140.03;;;21.94;43.64
15884;BME280;8040;50.254;10.960;2023-07-13T05:19:58;98142.16;;;22.04;43.36
15884;BME280;8040;50.254;10.960;2023-07-13T05:22:23;98137.91;;;22.14;43.22
15884;BME280;8040;50.254;10.960;2023-07-13T05:24:48;98147.16;;;22.28;43.05
15884;BME280;8040;50.254;10.960;2023-07-13T05:27:14;98143.84;;;22.45;42.85
15884;BME280;8040;50.254;10.960;2023-07-13T05:29:39;98147.47;;;22.56;42.35
15884;BME280;8040;50.254;10.960;2023-07-13T05:32:05;98139.66;;;22.62;42.42
15884;BME280;8040;50.254;10.960;2023-07-13T05:34:32;98150.69;;;22.58;42.72
15884;BME280;8040;50.254;10.960;2023-07-13T05:36:58;98154.56;;;22.54;42.25
15884;BME280;8040;50.254;10.960;2023-07-13T05:39:23;98145.00;;;22.48;41.54
15884;BME280;8040;50.254;10.960;2023-07-13T05:41:49;98146.44;;;22.35;41.46
15884;BME280;8040;50.254;10.960;2023-07-13T05:44:15;98152.75;;;22.35;41.48
15884;BME280;8040;50.254;10.960;2023-07-13T05:46:40;98151.13;;;22.31;41.21
15884;BME280;8040;50.254;10.960;2023-07-13T05:49:05;98154.19;;;22.22;41.46
15884;BME280;8040;50.254;10.960;2023-07-13T05:51:31;98158.13;;;22.21;41.71
15884;BME280;8040;50.254;10.960;2023-07-13T05:53:56;98157.75;;;22.23;41.48
15884;BME280;8040;50.254;10.960;2023-07-13T05:56:21;98158.63;;;22.30;41.96
15884;BME280;8040;50.254;10.960;2023-07-13T05:58:48;98156.78;;;22.41;41.71
15884;BME280;8040;50.254;10.960;2023-07-13T06:01:14;98154.91;;;22.49;41.55
15884;BME280;8040;50.254;10.960;2023-07-13T06:03:40;98162.06;;;22.53;41.26
15884;BME280;8040;50.254;10.960;2023-07-13T06:06:05;98162.44;;;22.52;41.88
15884;BME280;8040;50.254;10.960;2023-07-13T06:08:31;98167.94;;;22.48;42.59
15884;BME280;8040;50.254;10.960;2023-07-13T06:11:03;98168.63;;;22.42;42.05
15884;BME280;8040;50.254;10.960;2023-07-13T06:13:29;98175.69;;;22.36;41.96
15884;BME280;8040;50.254;10.960;2023-07-13T06:15:54;98180.41;;;22.35;41.81
15884;BME280;8040;50.254;10.960;2023-07-13T06:18:20;98178.91;;;22.41;42.13
15884;BME280;8040;50.254;10.960;2023-07-13T06:20:54;98180.19;;;22.47;42.01
15884;BME280;8040;50.254;10.960;2023-07-13T06:23:20;98170.16;;;22.72;41.76
15884;BME280;8040;50.254;10.960;2023-07-13T06:25:45;98191.63;;;22.86;41.26
15884;BME280;8040;50.254;10.960;2023-07-13T06:28:10;98177.78;;;22.82;40.64
15884;BME280;8040;50.254;10.960;2023-07-13T06:30:37;98183.34;;;22.86;40.77
15884;BME280;8040;50.254;10.960;2023-07-13T06:33:03;98187.31;;;22.88;41.18
15884;BME280;8040;50.254;10.960;2023-07-13T06:35:28;98191.22;;;22.87;41.24
15884;BME280;8040;50.254;10.960;2023-07-13T06:37:53;98195.63;;;22.88;41.51
15884;BME280;8040;50.254;10.960;2023-07-13T06:40:19;98194.44;;;22.89;42.91
15884;BME280;8040;50.254;10.960;2023-07-13T06:42:44;98193.66;;;22.92;43.56
15884;BME280;8040;50.254;10.960;2023-07-13T06:45:10;98195.31;;;22.97;42.10
15884;BME280;8040;50.254;10.960;2023-07-13T06:47:35;98193.31;;;22.97;41.40
15884;BME280;8040;50.254;10.960;2023-07-13T06:50:00;98198.47;;;22.99;42.69
15884;BME280;8040;50.254;10.960;2023-07-13T06:52:26;98212.34;;;23.02;42.86
15884;BME280;8040;50.254;10.960;2023-07-13T06:54:52;98202.50;;;23.08;43.09
15884;BME280;8040;50.254;10.960;2023-07-13T06:57:20;98201.13;;;23.28;42.06
15884;BME280;8040;50.254;10.960;2023-07-13T06:59:45;98210.00;;;23.48;43.45
15884;BME280;8040;50.254;10.960;2023-07-13T07:02:11;98205.06;;;23.81;44.87
15884;BME280;8040;50.254;10.960;2023-07-13T07:04:39;98208.00;;;24.09;43.91
15884;BME280;8040;50.254;10.960;2023-07-13T07:07:05;98209.63;;;24.10;39.68
15884;BME280;8040;50.254;10.960;2023-07-13T07:09:30;98209.63;;;24.10;39.59
15884;BME280;8040;50.254;10.960;2023-07-13T07:11:56;98214.72;;;24.01;39.41
15884;BME280;8040;50.254;10.960;2023-07-13T07:14:22;98224.53;;;23.88;40.25
15884;BME280;8040;50.254;10.960;2023-07-13T07:16:47;98218.81;;;23.64;39.98
15884;BME280;8040;50.254;10.960;2023-07-13T07:19:13;98222.75;;;23.66;40.72
15884;BME280;8040;50.254;10.960;2023-07-13T07:21:38;98218.09;;;23.77;40.56
15884;BME280;8040;50.254;10.960;2023-07-13T07:24:04;98221.34;;;23.86;39.66
15884;BME280;8040;50.254;10.960;2023-07-13T07:26:33;98217.47;;;23.98;42.93
15884;BME280;8040;50.254;10.960;2023-07-13T07:28:58;98216.31;;;24.09;42.75
15884;BME280;8040;50.254;10.960;2023-07-13T07:31:23;98223.03;;;24.01;41.38
15884;BME280;8040;50.254;10.960;2023-07-13T07:33:49;98223.38;;;23.93;40.76
15884;BME280;8040;50.254;10.960;2023-07-13T07:36:17;98213.53;;;24.02;41.98
15884;BME280;8040;50.254;10.960;2023-07-13T07:38:43;98215.19;;;24.14;40.89
15884;BME280;8040;50.254;10.960;2023-07-13T07:41:08;98217.53;;;24.15;40.55
15884;BME280;8040;50.254;10.960;2023-07-13T07:43:34;98216.84;;;24.32;43.00
15884;BME280;8040;50.254;10.960;2023-07-13T07:46:00;98220.81;;;24.35;40.56
15884;BME280;8040;50.254;10.960;2023-07-13T07:48:26;98218.47;;;24.40;40.14
15884;BME280;8040;50.254;10.960;2023-07-13T07:50:52;98222.03;;;24.44;37.98
15884;BME280;8040;50.254;10.960;2023-07-13T07:53:17;98223.63;;;24.45;39.28
15884;BME280;8040;50.254;10.960;2023-07-13T07:55:42;98222.78;;;24.31;34.27
15884;BME280;8040;50.254;10.960;2023-07-13T07:58:08;98226.31;;;24.24;34.26
15884;BME280;8040;50.254;10.960;2023-07-13T08:00:33;98229.47;;;24.23;33.76
15884;BME280;8040;50.254;10.960;2023-07-13T08:03:00;98229.50;;;24.33;34.44
15884;BME280;8040;50.254;10.960;2023-07-13T08:05:26;98238.31;;;24.49;34.78
15884;BME280;8040;50.254;10.960;2023-07-13T08:07:51;98232.81;;;24.60;35.24
15884;BME280;8040;50.254;10.960;2023-07-13T08:10:17;98229.66;;;24.68;35.34
15884;BME280;8040;50.254;10.960;2023-07-13T08:12:42;98224.56;;;24.74;35.58
15884;BME280;8040;50.254;10.960;2023-07-13T08:15:09;98229.69;;;24.72;35.43
15884;BME280;8040;50.254;10.960;2023-07-13T08:17:35;98242.00;;;24.81;36.12
15884;BME280;8040;50.254;10.960;2023-07-13T08:20:00;98241.59;;;24.79;34.24
15884;BME280;8040;50.254;10.960;2023-07-13T08:22:26;98233.66;;;24.81;34.85
15884;BME280;8040;50.254;10.960;2023-07-13T08:24:51;98241.63;;;24.90;35.11
15884;BME280;8040;50.254;10.960;2023-07-13T08:27:24;98238.09;;;25.03;35.48
15884;BME280;8040;50.254;10.960;2023-07-13T08:29:50;98237.31;;;25.13;37.27
15884;BME280;8040;50.254;10.960;2023-07-13T08:32:19;98234.53;;;25.13;34.48
15884;BME280;8040;50.254;10.960;2023-07-13T08:34:45;98239.28;;;25.20;34.51
15884;BME280;8040;50.254;10.960;2023-07-13T08:37:10;98230.16;;;25.16;34.30
15884;BME280;8040;50.254;10.960;2023-07-13T08:39:36;98237.69;;;25.12;31.94
15884;BME280;8040;50.254;10.960;2023-07-13T08:42:04;98235.69;;;24.98;30.62
15884;BME280;8040;50.254;10.960;2023-07-13T08:44:40;98230.06;;;24.70;31.22
15884;BME280;8040;50.254;10.960;2023-07-13T08:47:09;98232.75;;;24.49;32.17
15884;BME280;8040;50.254;10.960;2023-07-13T08:49:35;98241.44;;;24.44;33.59
15884;BME280;8040;50.254;10.960;2023-07-13T08:52:05;98244.97;;;24.34;29.86
15884;BME280;8040;50.254;10.960;2023-07-13T08:54:35;98240.22;;;24.38;30.42
15884;BME280;8040;50.254;10.960;2023-07-13T08:57:08;98246.91;;;24.27;29.30
15884;BME280;8040;50.254;10.960;2023-07-13T08:59:35;98248.47;;;24.17;28.44
15884;BME280;8040;50.254;10.960;2023-07-13T09:02:08;98249.69;;;24.23;33.09
15884;BME280;8040;50.254;10.960;2023-07-13T09:07:31;98261.28;;;24.46;32.52
15884;BME280;8040;50.254;10.960;2023-07-13T09:14:51;98262.06;;;24.50;31.92
15884;BME280;8040;50.254;10.960;2023-07-13T09:17:19;98249.41;;;24.56;32.94
15884;BME280;8040;50.254;10.960;2023-07-13T09:19:46;98247.81;;;24.52;28.14
15884;BME280;8040;50.254;10.960;2023-07-13T09:22:14;98240.69;;;24.47;27.85
15884;BME280;8040;50.254;10.960;2023-07-13T09:24:47;98239.47;;;24.45;27.98
15884;BME280;8040;50.254;10.960;2023-07-13T09:27:19;98244.66;;;24.53;28.58
15884;BME280;8040;50.254;10.960;2023-07-13T09:29:47;98252.66;;;24.62;33.77
15884;BME280;8040;50.254;10.960;2023-07-13T09:32:14;98241.59;;;24.76;34.68
15884;BME280;8040;50.254;10.960;2023-07-13T09:34:51;98245.59;;;24.89;35.71
15884;BME280;8040;50.254;10.960;2023-07-13T09:37:17;98240.44;;;24.94;34.44
15884;BME280;8040;50.254;10.960;2023-07-13T09:39:44;98244.44;;;25.07;32.60
15884;BME280;8040;50.254;10.960;2023-07-13T09:47:17;98225.78;;;25.22;31.79
15884;BME280;8040;50.254;10.960;2023-07-13T09:49:42;98244.84;;;25.23;33.55
15884;BME280;8040;50.254;10.960;2023-07-13T09:52:10;98239.28;;;25.20;32.30
15884;BME280;8040;50.254;10.960;2023-07-13T09:54:36;98230.16;;;25.12;29.08
15884;BME280;8040;50.254;10.960;2023-07-13T09:57:12;98234.94;;;25.08;28.96
15884;BME280;8040;50.254;10.960;2023-07-13T09:59:40;98240.47;;;25.15;33.50
15884;BME280;8040;50.254;10.960;2023-07-13T10:04:55;98240.09;;;25.13;29.60
15884;BME280;8040;50.254;10.960;2023-07-13T10:07:22;98242.88;;;25.17;29.54
15884;BME280;8040;50.254;10.960;2023-07-13T10:09:49;98244.00;;;24.98;28.09
15884;BME280;8040;50.254;10.960;2023-07-13T10:12:17;98234.88;;;24.94;28.00
15884;BME280;8040;50.254;10.960;2023-07-13T10:14:43;98230.53;;;24.97;32.72
15884;BME280;8040;50.254;10.960;2023-07-13T10:17:14;98240.88;;;25.10;33.42
15884;BME280;8040;50.254;10.960;2023-07-13T10:19:39;98248.81;;;25.22;31.48
15884;BME280;8040;50.254;10.960;2023-07-13T10:22:17;98249.59;;;25.12;28.29
15884;BME280;8040;50.254;10.960;2023-07-13T10:24:46;98245.66;;;25.17;30.11
15884;BME280;8040;50.254;10.960;2023-07-13T10:30:03;98258.38;;;25.35;32.25
15884;BME280;8040;50.254;10.960;2023-07-13T10:32:26;98252.44;;;25.40;30.66
15884;BME280;8040;50.254;10.960;2023-07-13T10:34:51;98250.84;;;25.39;29.16
15884;BME280;8040;50.254;10.960;2023-07-13T10:37:26;98242.50;;;25.25;27.46
15884;BME280;8040;50.254;10.960;2023-07-13T10:39:52;98259.19;;;25.25;28.39
15884;BME280;8040;50.254;10.960;2023-07-13T10:42:28;98252.81;;;25.28;30.80
15884;BME280;8040;50.254;10.960;2023-07-13T10:44:54;98252.03;;;25.38;32.81
15884;BME280;8040;50.254;10.960;2023-07-13T10:47:20;98248.44;;;25.55;32.22
15884;BME280;8040;50.254;10.960;2023-07-13T10:49:45;98244.50;;;25.63;30.66
15884;BME280;8040;50.254;10.960;2023-07-13T10:54:56;98242.09;;;25.86;35.23
15884;BME280;8040;50.254;10.960;2023-07-13T10:57:27;98247.66;;;25.90;28.94
15884;BME280;8040;50.254;10.960;2023-07-13T11:02:28;98250.00;;;25.84;27.46
15884;BME280;8040;50.254;10.960;2023-07-13T11:04:54;98268.69;;;25.87;27.44
15884;BME280;8040;50.254;10.960;2023-07-13T11:07:21;98256.38;;;25.95;32.08
15884;BME280;8040;50.254;10.960;2023-07-13T11:09:54;98251.19;;;26.04;30.57
15884;BME280;8040;50.254;10.960;2023-07-13T11:20:45;98242.88;;;25.90;26.97
15884;BME280;8040;50.254;10.960;2023-07-13T11:25:38;98250.41;;;26.04;26.43
15884;BME280;8040;50.254;10.960;2023-07-13T11:30:36;98244.84;;;26.11;26.29
15884;BME280;8040;50.254;10.960;2023-07-13T11:40:48;98239.56;;;26.44;29.73
15884;BME280;8040;50.254;10.960;2023-07-13T11:43:14;98237.53;;;26.62;28.53
15884;BME280;8040;50.254;10.960;2023-07-13T11:45:40;98238.31;;;26.66;29.15
15884;BME280;8040;50.254;10.960;2023-07-13T11:48:16;98240.69;;;26.64;25.81
15884;BME280;8040;50.254;10.960;2023-07-13T11:50:42;98234.75;;;26.62;25.91
15884;BME280;8040;50.254;10.960;2023-07-13T11:53:14;98235.47;;;26.77;28.91
15884;BME280;8040;50.254;10.960;2023-07-13T11:55:40;98219.94;;;26.79;27.02
15884;BME280;8040;50.254;10.960;2023-07-13T11:58:07;98246.22;;;26.68;26.71
15884;BME280;8040;50.254;10.960;2023-07-13T12:00:35;98239.91;;;26.50;25.97
15884;BME280;8040;50.254;10.960;2023-07-13T12:03:01;98227.22;;;26.45;26.72
15884;BME280;8040;50.254;10.960;2023-07-13T12:05:29;98237.19;;;26.39;27.71
15884;BME280;8040;50.254;10.960;2023-07-13T12:07:57;98244.75;;;26.39;27.16
15884;BME280;8040;50.254;10.960;2023-07-13T12:10:24;98253.09;;;26.42;26.83
15884;BME280;8040;50.254;10.960;2023-07-13T12:12:56;98250.31;;;26.42;26.10
15884;BME280;8040;50.254;10.960;2023-07-13T12:15:23;98232.41;;;26.47;26.38
15884;BME280;8040;50.254;10.960;2023-07-13T12:17:49;98233.53;;;26.63;27.80
15884;BME280;8040;50.254;10.960;2023-07-13T12:20:23;98229.09;;;26.76;28.03
15884;BME280;8040;50.254;10.960;2023-07-13T12:22:49;98235.09;;;26.68;25.50
15884;BME280;8040;50.254;10.960;2023-07-13T12:25:15;98226.34;;;26.69;26.22
15884;BME280;8040;50.254;10.960;2023-07-13T12:27:40;98241.44;;;26.75;26.79
15884;BME280;8040;50.254;10.960;2023-07-13T12:30:27;98245.38;;;26.81;28.93
15884;BME280;8040;50.254;10.960;2023-07-13T12:32:59;98248.56;;;26.76;26.69
15884;BME280;8040;50.254;10.960;2023-07-13T12:35:24;98254.22;;;26.62;26.07
15884;BME280;8040;50.254;10.960;2023-07-13T12:37:50;98252.69;;;26.54;26.66
15884;BME280;8040;50.254;10.960;2023-07-13T12:40:17;98252.22;;;26.52;30.31
15884;BME280;8040;50.254;10.960;2023-07-13T12:42:45;98251.03;;;26.50;27.99
15884;BME280;8040;50.254;10.960;2023-07-13T12:45:19;98257.41;;;26.50;30.17
15884;BME280;8040;50.254;10.960;2023-07-13T12:47:47;98256.63;;;26.50;28.30
15884;BME280;8040;50.254;10.960;2023-07-13T12:50:14;98251.06;;;26.46;27.22
15884;BME280;8040;50.254;10.960;2023-07-13T12:52:41;98253.47;;;26.44;27.12
15884;BME280;8040;50.254;10.960;2023-07-13T12:55:13;98249.91;;;26.47;26.87
15884;BME280;8040;50.254;10.960;2023-07-13T12:57:44;98251.84;;;26.50;26.77
15884;BME280;8040;50.254;10.960;2023-07-13T13:00:22;98257.84;;;26.45;26.57
15884;BME280;8040;50.254;10.960;2023-07-13T13:02:50;98247.91;;;26.44;25.74
15884;BME280;8040;50.254;10.960;2023-07-13T13:05:16;98255.88;;;26.42;26.02
15884;BME280;8040;50.254;10.960;2023-07-13T13:07:41;98256.25;;;26.41;26.04
15884;BME280;8040;50.254;10.960;2023-07-13T13:10:13;98259.81;;;26.59;28.39
15884;BME280;8040;50.254;10.960;2023-07-13T13:12:39;98260.53;;;26.73;29.31
15884;BME280;8040;50.254;10.960;2023-07-13T13:15:08;98261.28;;;26.77;29.22
15884;BME280;8040;50.254;10.960;2023-07-13T13:17:33;98266.91;;;26.70;30.20
15884;BME280;8040;50.254;10.960;2023-07-13T13:19:59;98236.75;;;26.51;31.78
15884;BME280;8040;50.254;10.960;2023-07-13T13:22:24;98273.25;;;26.74;33.14
15884;BME280;8040;50.254;10.960;2023-07-13T13:24:50;98273.69;;;26.66;27.38
15884;BME280;8040;50.254;10.960;2023-07-13T13:27:16;98270.16;;;26.55;27.38
15884;BME280;8040;50.254;10.960;2023-07-13T13:29:42;98266.94;;;26.53;27.65
15884;BME280;8040;50.254;10.960;2023-07-13T13:32:09;98264.97;;;26.60;27.81
15884;BME280;8040;50.254;10.960;2023-07-13T13:34:36;98272.06;;;26.72;28.66
15884;BME280;8040;50.254;10.960;2023-07-13T13:37:02;98266.88;;;26.74;29.95
15884;BME280;8040;50.254;10.960;2023-07-13T13:44:30;98260.63;;;26.42;28.11
15884;BME280;8040;50.254;10.960;2023-07-13T13:46:55;98265.38;;;26.48;31.56
15884;BME280;8040;50.254;10.960;2023-07-13T13:49:23;98263.00;;;26.54;28.69
15884;BME280;8040;50.254;10.960;2023-07-13T13:51:49;98267.00;;;26.42;26.62
15884;BME280;8040;50.254;10.960;2023-07-13T13:54:15;98263.84;;;26.33;26.76
15884;BME280;8040;50.254;10.960;2023-07-13T13:56:44;98274.16;;;26.36;29.67
15884;BME280;8040;50.254;10.960;2023-07-13T13:59:10;98259.84;;;26.41;27.81
15884;BME280;8040;50.254;10.960;2023-07-13T14:01:36;98257.44;;;26.54;29.52